createdAt,value
2022-12-31T00:01:41.326Z,85.29
2022-12-31T00:04:10.304Z,85.79
2022-12-31T00:06:38.276Z,86.23
2022-12-31T00:09:08.121Z,85.78
2022-12-31T00:11:36.767Z,85.63
2022-12-31T00:14:04.712Z,85.93
2022-12-31T00:16:36.405Z,86.06
2022-12-31T00:19:05.852Z,85.99
2022-12-31T00:21:35.611Z,85.49
2022-12-31T00:24:04.459Z,85.09
2022-12-31T00:26:34.258Z,85.06
2022-12-31T00:29:03.033Z,84.58
2022-12-31T00:31:33.007Z,83.75
2022-12-31T00:34:01.163Z,83.66
2022-12-31T00:36:30.634Z,83.99
2022-12-31T00:39:00.779Z,83.08
2022-12-31T00:41:29.440Z,83.41
2022-12-31T00:43:56.996Z,82.99
2022-12-31T00:46:25.088Z,82.65
2022-12-31T00:48:53.252Z,81.88
2022-12-31T00:51:23.566Z,82.35
2022-12-31T00:53:51.445Z,81.76
2022-12-31T00:56:22.108Z,80.99
2022-12-31T00:58:50.370Z,81.18
2022-12-31T01:01:20.413Z,80.81
2022-12-31T01:03:49.729Z,81.07
2022-12-31T01:06:18.479Z,81.15
2022-12-31T01:08:46.149Z,80.53
2022-12-31T01:11:20.379Z,79.96
2022-12-31T01:13:51.433Z,80.04
2022-12-31T01:16:21.281Z,79.99
2022-12-31T01:18:49.059Z,79.63
2022-12-31T01:21:16.830Z,78.71
2022-12-31T01:23:44.999Z,79.19
2022-12-31T01:26:14.432Z,78.60
2022-12-31T01:28:42.653Z,77.75
2022-12-31T01:31:13.265Z,78.60
2022-12-31T01:33:41.583Z,77.23
2022-12-31T01:36:12.380Z,76.63
2022-12-31T01:38:40.958Z,76.81
2022-12-31T01:41:09.349Z,76.50
2022-12-31T01:43:49.497Z,76.43
2022-12-31T01:46:26.079Z,76.26
2022-12-31T01:48:57.646Z,75.94
2022-12-31T01:51:28.205Z,75.77
2022-12-31T01:53:56.873Z,75.26
2022-12-31T01:56:25.585Z,75.06
2022-12-31T01:58:57.326Z,74.85
2022-12-31T02:01:31.995Z,75.23
2022-12-31T02:04:04.819Z,75.14
2022-12-31T02:06:39.202Z,75.35
2022-12-31T02:09:08.017Z,75.09
2022-12-31T02:11:38.197Z,75.17
2022-12-31T02:14:09.245Z,75.18
2022-12-31T02:16:47.576Z,75.34
2022-12-31T02:19:51.950Z,75.48
2022-12-31T02:22:29.954Z,75.44
2022-12-31T02:25:28.852Z,75.09
2022-12-31T02:28:13.570Z,75.93
2022-12-31T02:30:46.418Z,75.66
2022-12-31T02:33:20.262Z,76.36
2022-12-31T02:35:50.931Z,77.89
2022-12-31T02:38:23.372Z,78.53
2022-12-31T02:40:51.468Z,80.84
2022-12-31T02:43:19.061Z,82.33
2022-12-31T02:45:51.500Z,82.89
2022-12-31T02:48:29.805Z,83.08
2022-12-31T02:51:08.907Z,83.40
2022-12-31T02:53:53.466Z,83.22
2022-12-31T02:56:27.138Z,83.47
2022-12-31T02:59:20.651Z,84.01
2022-12-31T03:02:15.877Z,84.14
2022-12-31T03:04:46.966Z,83.74
2022-12-31T03:07:18.646Z,82.83
2022-12-31T03:09:46.286Z,82.67
2022-12-31T03:12:33.186Z,82.20
2022-12-31T03:15:07.164Z,81.38
2022-12-31T03:17:36.435Z,81.78
2022-12-31T03:20:22.349Z,81.83
2022-12-31T03:22:49.896Z,82.56
2022-12-31T03:25:34.195Z,82.08
2022-12-31T03:28:03.544Z,82.03
2022-12-31T03:30:33.174Z,82.25
2022-12-31T03:33:02.457Z,81.34
2022-12-31T03:35:32.455Z,81.06
2022-12-31T03:38:00.479Z,79.53
2022-12-31T03:40:29.543Z,79.36
2022-12-31T03:42:57.535Z,79.26
2022-12-31T03:45:25.442Z,78.63
2022-12-31T03:47:53.198Z,78.18
2022-12-31T03:50:22.224Z,78.06
2022-12-31T03:52:49.920Z,77.58
2022-12-31T03:55:17.579Z,77.25
2022-12-31T03:57:46.189Z,76.56
2022-12-31T04:02:45.260Z,76.61
2022-12-31T04:05:13.727Z,76.65
2022-12-31T04:07:43.333Z,76.20
2022-12-31T04:10:13.228Z,76.46
2022-12-31T04:12:41.533Z,76.82
2022-12-31T04:15:10.985Z,77.62
2022-12-31T04:17:38.681Z,77.70
2022-12-31T04:20:07.264Z,78.21
2022-12-31T04:22:34.840Z,78.59
2022-12-31T04:25:03.751Z,78.92
2022-12-31T04:27:31.458Z,79.76
2022-12-31T04:29:59.061Z,79.82
2022-12-31T04:32:26.689Z,78.90
2022-12-31T04:34:54.228Z,79.58
2022-12-31T04:37:21.821Z,78.99
2022-12-31T04:39:49.380Z,78.74
2022-12-31T04:42:18.262Z,78.73
2022-12-31T04:44:45.834Z,79.12
2022-12-31T04:47:15.296Z,78.54
2022-12-31T04:49:46.360Z,78.31
2022-12-31T04:52:13.941Z,78.33
2022-12-31T04:54:41.495Z,77.50
2022-12-31T04:57:09.120Z,76.99
2022-12-31T04:59:38.046Z,76.41
2022-12-31T05:02:05.861Z,77.08
2022-12-31T05:04:33.579Z,76.88
2022-12-31T05:07:01.178Z,75.87
2022-12-31T05:09:28.893Z,75.35
2022-12-31T05:11:56.504Z,75.80
2022-12-31T05:14:24.248Z,75.18
2022-12-31T05:16:53.290Z,74.92
2022-12-31T05:19:20.907Z,74.44
2022-12-31T05:22:08.608Z,74.98
2022-12-31T05:24:36.238Z,74.37
2022-12-31T05:27:04.630Z,74.55
2022-12-31T05:29:32.363Z,74.33
2022-12-31T05:32:01.245Z,74.74
2022-12-31T05:34:28.849Z,74.38
2022-12-31T05:36:56.482Z,73.58
2022-12-31T05:39:24.021Z,73.83
2022-12-31T05:41:51.539Z,73.36
2022-12-31T05:44:19.145Z,73.28
2022-12-31T05:46:47.747Z,73.65
2022-12-31T05:49:16.871Z,73.03
2022-12-31T05:51:44.494Z,72.77
2022-12-31T05:54:12.095Z,72.73
2022-12-31T05:56:39.782Z,72.68
2022-12-31T05:59:07.599Z,72.74
2022-12-31T06:01:35.258Z,72.94
2022-12-31T06:04:02.944Z,72.75
2022-12-31T06:06:31.908Z,72.42
2022-12-31T06:08:59.532Z,72.39
2022-12-31T06:11:27.148Z,72.62
2022-12-31T06:13:54.805Z,72.31
2022-12-31T06:16:22.425Z,72.42
2022-12-31T06:18:50.822Z,72.42
2022-12-31T06:21:18.658Z,72.39
2022-12-31T06:23:47.757Z,72.45
2022-12-31T06:26:16.241Z,72.63
2022-12-31T06:28:43.852Z,72.47
2022-12-31T06:31:14.787Z,72.75
2022-12-31T06:33:42.977Z,72.32
2022-12-31T06:36:14.009Z,72.50
2022-12-31T06:38:43.425Z,72.98
2022-12-31T06:41:14.278Z,72.46
2022-12-31T06:43:42.552Z,72.25
2022-12-31T06:46:12.342Z,72.38
2022-12-31T06:48:41.837Z,72.87
2022-12-31T06:51:17.035Z,72.39
2022-12-31T06:53:46.046Z,72.42
2022-12-31T06:56:19.013Z,72.18
2022-12-31T06:58:47.458Z,72.59
2022-12-31T07:01:33.072Z,72.40
2022-12-31T07:04:14.613Z,72.28
2022-12-31T07:06:48.369Z,71.51
2022-12-31T07:09:27.191Z,71.72
2022-12-31T07:12:03.335Z,72.15
2022-12-31T07:14:37.056Z,71.84
2022-12-31T07:17:30.918Z,71.76
2022-12-31T07:20:03.646Z,71.71
2022-12-31T07:22:31.719Z,71.36
2022-12-31T07:25:00.049Z,71.33
2022-12-31T07:27:43.590Z,70.81
2022-12-31T07:30:15.769Z,70.99
2022-12-31T07:33:03.009Z,71.07
2022-12-31T07:35:41.563Z,71.14
2022-12-31T07:38:19.241Z,70.87
2022-12-31T07:40:58.651Z,70.80
2022-12-31T07:43:35.671Z,70.41
2022-12-31T07:46:13.231Z,70.42
2022-12-31T07:48:41.439Z,70.35
2022-12-31T07:51:11.662Z,69.72
2022-12-31T07:53:39.713Z,70.21
2022-12-31T07:56:10.050Z,70.28
2022-12-31T07:58:54.119Z,69.64
2022-12-31T08:01:34.380Z,69.74
2022-12-31T08:04:08.194Z,69.60
2022-12-31T08:06:45.275Z,69.81
2022-12-31T08:09:26.773Z,69.92
2022-12-31T08:11:57.854Z,69.42
2022-12-31T08:14:28.525Z,69.76
2022-12-31T08:16:57.170Z,69.64
2022-12-31T08:19:27.649Z,68.82
2022-12-31T08:22:10.159Z,69.15
2022-12-31T08:24:49.730Z,69.18
2022-12-31T08:27:28.760Z,69.33
2022-12-31T08:30:04.619Z,69.39
2022-12-31T08:32:38.949Z,68.86
2022-12-31T08:35:19.613Z,68.76
2022-12-31T08:37:55.727Z,68.65
2022-12-31T08:40:26.674Z,68.39
2022-12-31T08:43:12.210Z,68.63
2022-12-31T08:45:47.620Z,68.40
2022-12-31T08:48:26.131Z,68.41
2022-12-31T08:50:54.375Z,68.31
2022-12-31T08:53:22.747Z,67.95
2022-12-31T08:55:53.661Z,68.12
2022-12-31T08:58:38.515Z,67.58
2022-12-31T09:01:09.503Z,67.54
2022-12-31T09:03:58.283Z,67.01
2022-12-31T09:06:29.716Z,66.77
2022-12-31T09:09:04.417Z,66.98
2022-12-31T09:11:43.506Z,66.95
2022-12-31T09:14:23.593Z,67.14
2022-12-31T09:17:03.131Z,67.06
2022-12-31T09:19:30.717Z,67.00
2022-12-31T09:21:58.883Z,66.84
2022-12-31T09:24:27.018Z,66.19
2022-12-31T09:27:05.680Z,66.22
2022-12-31T09:29:44.781Z,66.32
2022-12-31T09:32:24.290Z,66.17
2022-12-31T09:34:57.402Z,66.00
2022-12-31T09:37:37.468Z,65.84
2022-12-31T09:40:33.953Z,66.18
2022-12-31T09:43:28.795Z,65.44
2022-12-31T09:46:14.475Z,65.62
2022-12-31T09:49:11.085Z,65.55
2022-12-31T09:51:49.015Z,65.29
2022-12-31T09:54:29.546Z,65.27
2022-12-31T09:57:21.516Z,64.81
2022-12-31T09:59:58.564Z,64.99
2022-12-31T10:02:53.998Z,65.01
2022-12-31T10:05:54.363Z,64.88
2022-12-31T10:08:36.837Z,64.03
2022-12-31T10:11:11.570Z,63.79
2022-12-31T10:13:50.655Z,63.66
2022-12-31T10:16:33.444Z,63.30
2022-12-31T10:19:34.460Z,62.72
2022-12-31T10:22:15.317Z,62.41
2022-12-31T10:24:53.828Z,62.36
2022-12-31T10:27:31.956Z,61.97
2022-12-31T10:30:04.427Z,62.17
2022-12-31T10:32:43.195Z,61.39
2022-12-31T10:35:27.450Z,61.50
2022-12-31T10:38:07.515Z,61.50
2022-12-31T10:41:00.481Z,61.19
2022-12-31T10:44:02.547Z,61.02
2022-12-31T10:47:05.470Z,60.46
2022-12-31T10:50:17.096Z,60.33
2022-12-31T10:53:11.367Z,60.17
2022-12-31T10:56:21.862Z,59.87
2022-12-31T10:59:40.823Z,60.12
2022-12-31T11:02:32.696Z,59.82
2022-12-31T11:05:28.079Z,59.57
2022-12-31T11:08:16.392Z,58.93
2022-12-31T11:11:09.506Z,58.52
2022-12-31T11:14:09.753Z,58.34
2022-12-31T11:17:02.835Z,58.98
2022-12-31T11:19:41.183Z,57.93
2022-12-31T11:22:41.727Z,58.51
2022-12-31T11:25:28.237Z,58.25
2022-12-31T11:28:11.137Z,58.15
2022-12-31T11:30:48.317Z,58.55
2022-12-31T11:33:25.581Z,58.85
2022-12-31T11:36:12.399Z,58.18
2022-12-31T11:38:46.475Z,58.23
2022-12-31T11:41:22.302Z,58.26
2022-12-31T11:43:56.594Z,58.30
2022-12-31T11:46:48.319Z,57.81
2022-12-31T11:49:31.422Z,57.76
2022-12-31T11:52:19.577Z,58.11
2022-12-31T11:55:12.610Z,57.22
2022-12-31T11:57:42.463Z,56.88
2022-12-31T12:00:19.219Z,56.49
2022-12-31T12:02:49.933Z,55.96
2022-12-31T12:05:22.646Z,56.04
2022-12-31T12:07:51.209Z,55.23
2022-12-31T12:10:25.946Z,55.33
2022-12-31T12:12:58.860Z,55.07
2022-12-31T12:15:29.544Z,55.35
2022-12-31T12:17:59.612Z,54.70
2022-12-31T12:20:32.852Z,54.83
2022-12-31T12:23:14.345Z,53.71
2022-12-31T12:25:44.941Z,53.94
2022-12-31T12:28:19.718Z,53.29
2022-12-31T12:30:54.273Z,52.87
2022-12-31T12:33:22.257Z,53.19
2022-12-31T12:35:51.320Z,51.87
2022-12-31T12:38:21.372Z,52.24
2022-12-31T12:40:57.532Z,52.25
2022-12-31T12:43:27.926Z,52.66
2022-12-31T12:46:00.019Z,52.93
2022-12-31T12:48:35.787Z,52.35
2022-12-31T12:51:18.093Z,52.41
2022-12-31T12:53:56.852Z,52.52
2022-12-31T12:56:38.128Z,53.07
2022-12-31T12:59:29.999Z,52.82
2022-12-31T13:02:13.610Z,52.72
2022-12-31T13:04:51.900Z,52.22
2022-12-31T13:07:34.631Z,52.17
2022-12-31T13:10:20.344Z,52.17
2022-12-31T13:15:52.572Z,51.93
2022-12-31T13:18:33.225Z,51.50
2022-12-31T13:21:08.584Z,51.25
2022-12-31T13:23:43.988Z,51.44
2022-12-31T13:26:16.095Z,51.58
2022-12-31T13:28:47.163Z,51.42
2022-12-31T13:31:19.111Z,51.14
2022-12-31T13:33:51.441Z,51.49
2022-12-31T13:36:22.012Z,51.10
2022-12-31T13:38:54.059Z,51.67
2022-12-31T13:41:26.053Z,51.81
2022-12-31T13:43:59.745Z,51.50
2022-12-31T13:46:36.389Z,51.44
2022-12-31T13:49:11.502Z,51.90
2022-12-31T13:51:44.314Z,52.06
2022-12-31T13:54:25.415Z,52.11
2022-12-31T13:56:55.309Z,52.10
2022-12-31T13:59:29.147Z,52.34
2022-12-31T14:02:02.767Z,52.28
2022-12-31T14:04:38.273Z,52.44
2022-12-31T14:07:13.234Z,52.30
2022-12-31T14:09:42.451Z,52.37
2022-12-31T14:12:22.144Z,52.37
2022-12-31T14:14:56.172Z,52.53
2022-12-31T14:17:32.871Z,52.17
2022-12-31T14:20:12.962Z,52.14
2022-12-31T14:22:44.866Z,52.09
2022-12-31T14:25:22.092Z,52.26
2022-12-31T14:27:53.387Z,52.23
2022-12-31T14:30:23.128Z,52.30
2022-12-31T14:33:10.672Z,51.58
2022-12-31T14:35:53.347Z,51.83
2022-12-31T14:38:35.487Z,51.76
2022-12-31T14:41:13.768Z,51.69
2022-12-31T14:43:51.958Z,51.96
2022-12-31T14:46:30.289Z,51.88
2022-12-31T14:49:07.487Z,52.13
2022-12-31T14:51:37.988Z,51.75
2022-12-31T14:54:05.945Z,52.14
2022-12-31T14:56:43.956Z,52.58
2022-12-31T14:59:33.339Z,52.79
2022-12-31T15:02:04.966Z,52.46
2022-12-31T15:04:42.757Z,52.67
2022-12-31T15:07:17.789Z,52.38
2022-12-31T15:09:57.580Z,52.69
2022-12-31T15:12:48.402Z,52.55
2022-12-31T15:15:33.360Z,52.05
2022-12-31T15:18:14.558Z,52.21
2022-12-31T15:21:08.741Z,52.41
2022-12-31T15:23:37.953Z,52.14
2022-12-31T15:26:08.393Z,52.71
2022-12-31T15:28:39.338Z,52.16
2022-12-31T15:31:18.827Z,51.98
2022-12-31T15:33:57.951Z,52.17
2022-12-31T15:36:28.289Z,52.55
2022-12-31T15:39:26.617Z,52.50
2022-12-31T15:44:49.996Z,52.50
2022-12-31T15:47:28.750Z,52.42
2022-12-31T15:49:56.735Z,51.99
2022-12-31T15:52:27.455Z,52.90
2022-12-31T15:54:57.836Z,52.65
2022-12-31T15:57:32.410Z,52.87
2022-12-31T16:00:03.339Z,52.59
2022-12-31T16:02:31.215Z,53.23
2022-12-31T16:04:58.962Z,52.99
2022-12-31T16:07:29.101Z,52.75
2022-12-31T16:10:00.135Z,53.02
2022-12-31T16:12:35.113Z,52.60
2022-12-31T16:15:07.583Z,52.51
2022-12-31T16:17:39.687Z,52.10
2022-12-31T16:20:23.619Z,52.26
2022-12-31T16:22:54.774Z,52.15
2022-12-31T16:25:31.901Z,52.42
2022-12-31T16:28:00.574Z,51.91
2022-12-31T16:30:32.023Z,51.87
2022-12-31T16:33:01.454Z,51.08
2022-12-31T16:35:31.193Z,51.02
2022-12-31T16:38:03.608Z,51.12
2022-12-31T16:40:31.711Z,51.21
2022-12-31T16:42:59.462Z,50.63
2022-12-31T16:45:34.247Z,50.13
2022-12-31T16:48:12.999Z,50.19
2022-12-31T16:50:46.013Z,50.00
2022-12-31T16:53:17.699Z,48.56
2022-12-31T16:55:52.770Z,48.28
2022-12-31T16:58:25.173Z,47.06
2022-12-31T17:00:55.138Z,45.62
2022-12-31T17:03:25.595Z,45.68
2022-12-31T17:05:59.742Z,45.88
2022-12-31T17:08:29.752Z,45.65
2022-12-31T17:10:57.504Z,45.60
2022-12-31T17:13:30.389Z,45.37
2022-12-31T17:16:01.717Z,44.76
2022-12-31T17:18:36.647Z,45.06
2022-12-31T17:21:09.631Z,45.29
2022-12-31T17:23:40.439Z,45.37
2022-12-31T17:26:11.234Z,45.70
2022-12-31T17:28:44.135Z,46.35
2022-12-31T17:31:35.249Z,46.71
2022-12-31T17:34:20.320Z,46.81
2022-12-31T17:36:58.264Z,46.98
2022-12-31T17:39:26.299Z,46.97
2022-12-31T17:41:58.467Z,47.02
2022-12-31T17:44:29.423Z,47.37
2022-12-31T17:46:58.715Z,47.92
2022-12-31T17:49:31.245Z,47.97
2022-12-31T17:51:58.878Z,47.81
2022-12-31T17:54:26.428Z,47.73
2022-12-31T17:56:54.666Z,48.15
2022-12-31T17:59:24.817Z,48.13
2022-12-31T18:01:52.564Z,48.75
2022-12-31T18:04:21.621Z,48.79
2022-12-31T18:06:49.246Z,49.06
2022-12-31T18:09:16.877Z,49.29
2022-12-31T18:11:45.929Z,49.21
2022-12-31T18:14:15.891Z,49.49
2022-12-31T18:16:43.630Z,49.61
2022-12-31T18:19:37.747Z,50.44
2022-12-31T18:22:03.560Z,50.75
2022-12-31T18:24:31.180Z,50.77
2022-12-31T18:26:58.768Z,50.74
2022-12-31T18:29:26.449Z,50.93
2022-12-31T18:31:54.275Z,50.52
2022-12-31T18:34:21.852Z,50.47
2022-12-31T18:36:49.416Z,50.30
2022-12-31T18:39:18.353Z,50.50
2022-12-31T18:41:49.944Z,49.08
2022-12-31T18:44:18.315Z,49.99
2022-12-31T18:46:45.912Z,49.15
2022-12-31T18:49:13.495Z,48.90
2022-12-31T18:51:41.118Z,49.09
2022-12-31T18:54:12.328Z,49.01
2022-12-31T18:56:47.050Z,48.97
2022-12-31T18:59:15.959Z,48.72
2022-12-31T19:01:43.657Z,48.38
2022-12-31T19:04:14.310Z,48.66
2022-12-31T19:06:42.576Z,48.82
2022-12-31T19:09:31.003Z,49.19
2022-12-31T19:11:59.477Z,48.99
2022-12-31T19:14:27.382Z,48.81
2022-12-31T19:16:56.982Z,49.47
2022-12-31T19:19:24.503Z,49.75
2022-12-31T19:21:52.093Z,50.03
2022-12-31T19:24:21.945Z,49.73
2022-12-31T19:26:50.599Z,50.64
2022-12-31T19:29:22.691Z,51.15
2022-12-31T19:31:50.970Z,51.47
2022-12-31T19:34:18.634Z,51.76
2022-12-31T19:36:46.702Z,51.20
2022-12-31T19:39:16.939Z,51.56
2022-12-31T19:41:45.217Z,50.71
2022-12-31T19:44:16.406Z,50.30
2022-12-31T19:46:46.180Z,50.40
2022-12-31T19:49:14.785Z,49.72
2022-12-31T19:51:43.348Z,49.76
2022-12-31T19:54:13.301Z,49.99
2022-12-31T19:56:41.176Z,50.08
2022-12-31T19:59:10.850Z,49.89
2022-12-31T20:01:39.222Z,49.99
2022-12-31T20:04:08.562Z,49.10
2022-12-31T20:06:36.315Z,49.32
2022-12-31T20:09:04.288Z,49.02
2022-12-31T20:11:32.142Z,49.47
2022-12-31T20:13:59.941Z,49.76
2022-12-31T20:16:29.775Z,50.24
2022-12-31T20:18:57.642Z,50.08
2022-12-31T20:21:30.302Z,50.17
2022-12-31T20:23:58.714Z,50.39
2022-12-31T20:26:26.900Z,50.03
2022-12-31T20:28:54.742Z,50.47
2022-12-31T20:31:25.403Z,50.47
2022-12-31T20:33:54.168Z,50.50
2022-12-31T20:36:22.207Z,50.34
2022-12-31T20:38:51.377Z,49.93
2022-12-31T20:41:20.865Z,50.26
2022-12-31T20:43:49.073Z,49.56
2022-12-31T20:46:19.052Z,49.96
2022-12-31T20:48:48.540Z,49.61
2022-12-31T20:51:17.575Z,49.50
2022-12-31T20:53:47.838Z,49.15
2022-12-31T20:56:17.948Z,48.58
2022-12-31T20:58:45.817Z,48.58
2022-12-31T21:01:14.272Z,48.27
2022-12-31T21:04:14.752Z,48.09
2022-12-31T21:06:33.487Z,48.12
2022-12-31T21:09:03.177Z,47.94
2022-12-31T21:11:50.195Z,48.29
2022-12-31T21:14:17.946Z,48.32
2022-12-31T21:16:45.640Z,47.93
2022-12-31T21:19:13.376Z,47.82
2022-12-31T21:21:41.022Z,47.80
2022-12-31T21:24:09.184Z,47.88
2022-12-31T21:26:38.174Z,48.09
2022-12-31T21:29:06.018Z,47.86
2022-12-31T21:31:33.748Z,48.00
2022-12-31T21:34:01.441Z,47.55
2022-12-31T21:36:29.188Z,48.04
2022-12-31T21:38:57.327Z,48.09
2022-12-31T21:41:48.105Z,48.71
2022-12-31T21:44:17.178Z,48.30
2022-12-31T21:47:15.690Z,48.25
2022-12-31T21:49:32.585Z,48.68
2022-12-31T21:52:17.811Z,48.89
2022-12-31T21:55:02.973Z,49.14
2022-12-31T21:57:34.291Z,49.45
2022-12-31T22:00:42.397Z,48.88
2022-12-31T22:03:27.285Z,49.68
2022-12-31T22:05:58.569Z,50.07
2022-12-31T22:08:27.159Z,49.77
2022-12-31T22:10:55.036Z,50.18
2022-12-31T22:13:23.185Z,50.87
2022-12-31T22:16:01.752Z,50.70
2022-12-31T22:18:33.994Z,50.70
2022-12-31T22:21:02.915Z,51.25
2022-12-31T22:23:30.801Z,51.16
2022-12-31T22:25:58.640Z,51.21
2022-12-31T22:28:41.609Z,51.03
2022-12-31T22:31:14.481Z,50.52
2022-12-31T22:33:42.381Z,50.77
2022-12-31T22:36:13.302Z,50.91
2022-12-31T22:38:41.444Z,51.25
2022-12-31T22:41:11.119Z,51.41
2022-12-31T22:43:41.747Z,51.61
2022-12-31T22:46:13.396Z,51.96
2022-12-31T22:48:41.568Z,51.92
2022-12-31T22:51:10.584Z,52.30
2022-12-31T22:53:39.554Z,51.69
2022-12-31T22:56:08.009Z,53.02
2022-12-31T22:58:36.182Z,52.65
2022-12-31T23:01:05.523Z,53.06
2022-12-31T23:03:34.487Z,54.94
2022-12-31T23:06:02.161Z,57.96
2022-12-31T23:08:29.689Z,54.47
2022-12-31T23:11:01.220Z,54.11
2022-12-31T23:13:50.631Z,53.44
2022-12-31T23:16:36.712Z,53.70
2022-12-31T23:19:24.527Z,54.22
2022-12-31T23:22:09.948Z,54.35
2022-12-31T23:24:37.829Z,54.49
2022-12-31T23:27:05.860Z,55.20
2022-12-31T23:29:33.901Z,55.44
2022-12-31T23:32:01.647Z,56.59
2022-12-31T23:34:30.614Z,56.54
2022-12-31T23:36:58.223Z,56.22
2022-12-31T23:39:25.754Z,56.55
2022-12-31T23:41:53.332Z,56.27
2022-12-31T23:44:21.131Z,56.20
2022-12-31T23:46:48.731Z,56.37
2022-12-31T23:49:16.325Z,56.74
2022-12-31T23:51:45.604Z,56.09
2022-12-31T23:54:14.691Z,56.15
2022-12-31T23:56:42.781Z,56.21
2022-12-31T23:59:11.981Z,56.01
